Time;durP1;ratioP1;P1;durP2;ratioP2;P2;SDS_P1;SDS_P2;PMS_P1;PMS_P2;Temp;Humidity;BMP_temperature;BMP_pressure;BME280_temperature;BME280_humidity;BME280_pressure;Samples;Min_cycle;Max_cycle;Signal;HPM_P1;HPM_P2
2023/07/10 00:01:04;;;;;;;0.70;0.70;;;19.40;99.90;;;;;;5057088;28;20087;-77
2023/07/10 00:03:31;;;;;;;1.17;0.95;;;19.80;99.90;;;;;;5044193;28;20045;-77
2023/07/10 00:05:57;;;;;;;0.60;0.60;;;19.40;99.90;;;;;;5052907;28;20044;-78
2023/07/10 00:08:23;;;;;;;0.77;0.77;;;19.50;99.90;;;;;;5055864;28;20041;-78
2023/07/10 00:10:50;;;;;;;0.68;0.68;;;19.80;99.90;;;;;;5043540;28;20045;-78
2023/07/10 00:13:21;;;;;;;1.17;0.75;;;19.50;99.90;;;;;;5046351;28;20063;-78
2023/07/10 00:15:48;;;;;;;0.60;0.60;;;19.60;99.90;;;;;;5055587;28;20076;-78
2023/07/10 00:18:17;;;;;;;0.63;0.60;;;19.70;99.90;;;;;;5058359;28;20076;-78
2023/07/10 00:20:43;;;;;;;0.50;0.50;;;19.80;99.90;;;;;;5048851;28;20072;-78
2023/07/10 00:23:08;;;;;;;0.77;0.77;;;19.60;99.90;;;;;;5060233;28;20490;-78
2023/07/10 00:25:35;;;;;;;0.68;0.68;;;19.90;99.90;;;;;;5047173;28;20398;-78
2023/07/10 00:28:01;;;;;;;0.60;0.60;;;19.70;99.90;;;;;;5040119;28;20045;-78
2023/07/10 00:30:27;;;;;;;1.10;0.57;;;19.60;99.90;;;;;;5043383;28;20037;-77
2023/07/10 00:32:54;;;;;;;0.30;0.30;;;19.90;99.90;;;;;;5050005;28;20556;-78
2023/07/10 00:35:24;;;;;;;0.40;0.40;;;19.60;99.90;;;;;;5053319;28;20045;-78
2023/07/10 00:38:03;;;;;;;0.60;0.60;;;19.80;99.90;;;;;;5054527;28;20052;-78
2023/07/10 00:40:33;;;;;;;0.40;0.40;;;19.90;99.90;;;;;;5048973;28;20105;-78
2023/07/10 00:43:20;;;;;;;0.52;0.52;;;19.60;99.90;;;;;;5039182;28;20035;-78
2023/07/10 00:45:48;;;;;;;0.60;0.60;;;19.70;99.90;;;;;;5046062;28;20548;-78
2023/07/10 00:48:28;;;;;;;0.50;0.50;;;19.60;99.90;;;;;;5042748;28;20565;-79
2023/07/10 00:50:56;;;;;;;1.08;1.08;;;19.50;99.90;;;;;;5049395;28;20180;-78
2023/07/10 00:53:27;;;;;;;;;;;19.40;99.90;;;;;;5052955;28;20037;-79
2023/07/10 00:55:56;;;;;;;0.40;0.40;;;19.30;99.90;;;;;;5054332;28;19929;-78
2023/07/10 00:58:24;;;;;;;0.55;0.40;;;19.30;99.90;;;;;;5045980;28;20463;-79
2023/07/10 01:01:04;;;;;;;0.60;0.60;;;19.50;99.90;;;;;;5056265;28;20127;-78
2023/07/10 01:03:31;;;;;;;0.52;0.52;;;19.30;99.90;;;;;;5045969;28;20102;-78
2023/07/10 01:06:00;;;;;;;1.77;1.17;;;19.50;99.90;;;;;;5045849;28;20052;-78
2023/07/10 01:08:27;;;;;;;0.95;0.95;;;19.60;99.90;;;;;;5045436;28;20041;-78
2023/07/10 01:10:53;;;;;;;1.40;1.38;;;19.60;99.90;;;;;;5056578;28;20045;-78
2023/07/10 01:13:18;;;;;;;0.75;0.75;;;19.50;99.90;;;;;;5055280;28;20099;-78
2023/07/10 01:15:44;;;;;;;0.65;0.65;;;19.50;99.90;;;;;;5041938;28;20060;-78
2023/07/10 01:18:11;;;;;;;0.55;0.55;;;19.30;99.90;;;;;;5046799;28;20045;-78
2023/07/10 01:20:49;;;;;;;0.30;0.30;;;19.30;99.90;;;;;;5045193;28;20107;-78
2023/07/10 01:23:16;;;;;;;0.80;0.77;;;19.30;99.90;;;;;;5037404;28;20312;-78
2023/07/10 01:25:57;;;;;;;0.30;0.30;;;19.40;99.90;;;;;;5044829;28;20103;-78
2023/07/10 01:28:22;;;;;;;0.60;0.60;;;19.60;99.90;;;;;;5055847;28;20063;-78
2023/07/10 01:30:51;;;;;;;0.40;0.40;;;19.60;99.90;;;;;;5052843;28;20056;-79
2023/07/10 01:33:23;;;;;;;0.52;0.52;;;19.60;99.90;;;;;;5055546;28;20044;-78
2023/07/10 01:35:51;;;;;;;0.40;0.40;;;19.60;99.90;;;;;;5041019;28;20525;-78
2023/07/10 01:38:17;;;;;;;3.40;0.50;;;19.60;99.90;;;;;;5052985;28;20129;-77
2023/07/10 01:40:50;;;;;;;0.40;0.40;;;19.60;99.90;;;;;;5035882;28;20128;-77
2023/07/10 01:43:16;;;;;;;0.38;0.38;;;19.50;99.90;;;;;;5043569;28;20155;-77
2023/07/10 01:45:44;;;;;;;0.40;0.40;;;19.60;99.90;;;;;;5053791;28;20518;-77
2023/07/10 01:48:11;;;;;;;0.50;0.50;;;19.50;99.90;;;;;;5042563;28;20044;-77
2023/07/10 01:50:36;;;;;;;0.45;0.45;;;19.60;99.90;;;;;;5052379;28;20041;-78
2023/07/10 01:53:02;;;;;;;0.30;0.30;;;19.30;99.90;;;;;;5054564;28;20056;-78
2023/07/10 01:55:30;;;;;;;0.60;0.47;;;19.40;99.90;;;;;;5043170;28;20037;-77
2023/07/10 01:57:56;;;;;;;;;;;19.30;99.90;;;;;;5054557;28;20225;-77
2023/07/10 02:00:21;;;;;;;0.50;0.50;;;19.70;99.90;;;;;;5055922;28;20043;-77
2023/07/10 02:02:47;;;;;;;0.55;0.55;;;19.60;99.90;;;;;;5054659;28;20044;-77
2023/07/10 02:05:13;;;;;;;0.50;0.50;;;19.50;99.90;;;;;;5058291;28;20033;-77
2023/07/10 02:07:38;;;;;;;0.30;0.30;;;19.60;99.90;;;;;;5050095;28;20040;-77
2023/07/10 02:10:04;;;;;;;0.40;0.40;;;19.30;99.90;;;;;;5045047;28;20069;-77
2023/07/10 02:12:30;;;;;;;0.38;0.38;;;19.40;99.90;;;;;;5053317;28;20045;-77
2023/07/10 02:14:55;;;;;;;0.50;0.50;;;19.40;99.90;;;;;;5048133;28;20064;-77
2023/07/10 02:17:21;;;;;;;0.40;0.40;;;19.50;99.90;;;;;;5056024;28;20450;-77
2023/07/10 02:19:47;;;;;;;0.45;0.45;;;19.50;99.90;;;;;;5059445;28;20178;-77
2023/07/10 02:22:12;;;;;;;0.50;0.50;;;19.60;99.90;;;;;;5058824;28;20052;-77
2023/07/10 02:24:38;;;;;;;0.68;0.68;;;19.60;99.90;;;;;;5055553;28;20398;-77
2023/07/10 02:27:04;;;;;;;0.52;0.52;;;19.40;99.90;;;;;;5046989;28;20209;-77
2023/07/10 02:29:29;;;;;;;0.55;0.55;;;19.40;99.90;;;;;;5047782;28;20082;-77
2023/07/10 02:31:55;;;;;;;0.40;0.40;;;19.50;99.90;;;;;;5055113;28;20076;-77
2023/07/10 02:34:21;;;;;;;0.52;0.40;;;19.70;99.90;;;;;;5062286;28;20036;-77
2023/07/10 02:36:46;;;;;;;0.75;0.75;;;19.60;99.90;;;;;;5049745;28;20068;-77
2023/07/10 02:39:12;;;;;;;0.50;0.50;;;19.40;99.90;;;;;;5054638;28;20044;-77
2023/07/10 02:41:38;;;;;;;1.35;0.70;;;19.40;99.90;;;;;;5060291;28;20159;-77
2023/07/10 02:44:03;;;;;;;0.40;0.40;;;19.60;99.90;;;;;;5044296;28;20044;-77
2023/07/10 02:46:29;;;;;;;0.30;0.30;;;19.60;99.90;;;;;;5049133;28;20818;-77
2023/07/10 02:48:54;;;;;;;0.30;0.30;;;19.30;99.90;;;;;;5046310;28;20043;-77
2023/07/10 02:51:20;;;;;;;0.47;0.47;;;19.50;99.90;;;;;;5058557;28;20049;-77
2023/07/10 02:53:46;;;;;;;1.20;0.98;;;19.30;99.90;;;;;;5049785;28;20401;-78
2023/07/10 02:56:11;;;;;;;0.50;0.50;;;19.60;99.90;;;;;;5045360;28;20041;-79
2023/07/10 02:58:37;;;;;;;0.40;0.40;;;19.40;99.90;;;;;;5050680;28;20425;-78
2023/07/10 03:01:03;;;;;;;0.40;0.40;;;19.70;99.90;;;;;;5047503;28;20529;-77
2023/07/10 03:03:29;;;;;;;0.40;0.40;;;19.70;99.90;;;;;;5055868;28;20048;-77
2023/07/10 03:05:56;;;;;;;0.80;0.65;;;19.70;99.90;;;;;;5048467;28;20044;-77
2023/07/10 03:08:22;;;;;;;0.32;0.32;;;19.40;99.90;;;;;;5055187;28;20053;-77
2023/07/10 03:10:47;;;;;;;0.40;0.40;;;19.50;99.90;;;;;;5046260;28;20592;-77
2023/07/10 03:13:13;;;;;;;0.40;0.40;;;19.40;99.90;;;;;;5046402;28;20040;-77
2023/07/10 03:15:39;;;;;;;0.30;0.30;;;19.30;99.90;;;;;;5055857;28;20596;-77
2023/07/10 03:18:04;;;;;;;2.75;1.25;;;19.50;99.90;;;;;;5053158;28;20041;-77
2023/07/10 03:20:30;;;;;;;0.63;0.63;;;19.20;99.90;;;;;;5060274;28;20413;-77
2023/07/10 03:22:55;;;;;;;1.05;1.05;;;19.40;99.90;;;;;;5052813;28;20060;-77
2023/07/10 03:25:21;;;;;;;0.40;0.40;;;19.10;99.90;;;;;;5055557;28;20056;-77
2023/07/10 03:27:48;;;;;;;0.60;0.60;;;19.40;99.90;;;;;;5058500;28;20052;-79
2023/07/10 03:30:14;;;;;;;1.33;1.23;;;19.40;99.90;;;;;;5046308;28;20123;-78
2023/07/10 03:32:40;;;;;;;0.80;0.50;;;19.10;99.90;;;;;;5048268;28;20573;-79
2023/07/10 03:35:06;;;;;;;0.90;0.90;;;19.10;99.90;;;;;;5047954;28;20084;-79
2023/07/10 03:37:32;;;;;;;1.25;1.25;;;19.10;99.90;;;;;;5055735;28;20056;-80
2023/07/10 03:39:57;;;;;;;0.43;0.43;;;19.20;99.90;;;;;;5053806;28;20486;-79
2023/07/10 03:42:23;;;;;;;0.95;0.88;;;19.20;99.90;;;;;;5056749;28;20131;-79
2023/07/10 03:44:48;;;;;;;0.73;0.50;;;19.00;99.90;;;;;;5019418;28;20458;-79
2023/07/10 03:47:14;;;;;;;0.60;0.60;;;19.20;99.90;;;;;;5045793;28;20049;-79
2023/07/10 03:49:39;;;;;;;0.52;0.52;;;19.10;99.90;;;;;;5025103;28;20432;-79
2023/07/10 03:52:05;;;;;;;0.40;0.40;;;19.00;99.90;;;;;;5048344;28;20077;-79
2023/07/10 03:54:35;;;;;;;0.77;0.73;;;19.00;99.90;;;;;;5045415;28;20094;-79
2023/07/10 03:57:01;;;;;;;0.38;0.38;;;19.10;99.90;;;;;;5047296;28;20052;-79
2023/07/10 03:59:27;;;;;;;0.52;0.52;;;18.90;99.90;;;;;;5050732;28;20048;-80
2023/07/10 04:01:52;;;;;;;0.43;0.40;;;19.10;99.90;;;;;;5051296;28;20045;-79
2023/07/10 04:04:18;;;;;;;0.43;0.43;;;19.00;99.90;;;;;;5035381;28;20057;-79
2023/07/10 04:06:43;;;;;;;0.50;0.50;;;18.90;99.90;;;;;;5049423;28;20041;-80
2023/07/10 04:09:09;;;;;;;0.30;0.30;;;18.90;99.90;;;;;;5064019;28;20083;-79
2023/07/10 04:11:35;;;;;;;0.57;0.57;;;19.10;99.90;;;;;;5048207;28;20048;-79
2023/07/10 04:14:00;;;;;;;0.40;0.40;;;19.10;99.90;;;;;;5043212;28;20046;-79
2023/07/10 04:16:28;;;;;;;0.70;0.70;;;19.00;99.90;;;;;;5048285;28;20039;-79
2023/07/10 04:18:55;;;;;;;0.40;0.40;;;19.10;99.90;;;;;;5055001;28;20045;-79
2023/07/10 04:21:30;;;;;;;0.50;0.50;;;19.10;99.90;;;;;;5048322;28;20052;-79
2023/07/10 04:23:57;;;;;;;0.60;0.60;;;19.00;99.90;;;;;;5048308;28;20452;-79
2023/07/10 04:26:25;;;;;;;0.45;0.45;;;18.90;99.90;;;;;;5054330;28;20076;-79
2023/07/10 04:28:55;;;;;;;0.93;0.93;;;18.90;99.90;;;;;;5054897;28;20056;-79
2023/07/10 04:31:22;;;;;;;0.20;0.20;;;19.20;99.90;;;;;;5047555;28;20048;-81
2023/07/10 04:33:50;;;;;;;0.85;0.85;;;18.90;99.90;;;;;;5057586;28;20048;-79
2023/07/10 04:36:16;;;;;;;0.30;0.30;;;19.20;99.90;;;;;;5042459;28;20046;-79
2023/07/10 04:38:42;;;;;;;0.68;0.68;;;18.90;99.90;;;;;;5054701;28;20037;-79
2023/07/10 04:41:11;;;;;;;0.55;0.55;;;19.00;99.90;;;;;;5043877;28;20041;-79
2023/07/10 04:43:37;;;;;;;0.40;0.40;;;19.30;99.90;;;;;;5051425;28;20049;-80
2023/07/10 04:46:05;;;;;;;0.30;0.30;;;18.90;99.90;;;;;;5049322;28;20049;-79
2023/07/10 04:48:31;;;;;;;0.30;0.30;;;18.90;99.90;;;;;;5047121;28;20104;-79
2023/07/10 04:50:59;;;;;;;1.45;0.75;;;19.20;99.90;;;;;;5048358;28;20041;-79
2023/07/10 04:53:25;;;;;;;1.05;1.05;;;19.20;99.90;;;;;;5055793;28;20044;-79
2023/07/10 04:55:52;;;;;;;0.60;0.60;;;19.00;99.90;;;;;;5040505;28;20052;-79
2023/07/10 04:58:18;;;;;;;0.55;0.55;;;18.90;99.90;;;;;;5052854;28;20049;-79
2023/07/10 05:00:50;;;;;;;0.30;0.30;;;19.10;99.90;;;;;;5045659;28;20060;-79
2023/07/10 05:03:16;;;;;;;0.50;0.50;;;19.20;99.90;;;;;;5051124;28;20787;-80
2023/07/10 05:05:49;;;;;;;0.77;0.75;;;18.90;99.90;;;;;;5051348;28;20072;-79
2023/07/10 05:08:15;;;;;;;0.70;0.70;;;19.00;99.90;;;;;;5056389;28;20071;-79
2023/07/10 05:10:43;;;;;;;0.85;0.60;;;19.30;99.90;;;;;;5054034;28;20056;-79
2023/07/10 05:13:09;;;;;;;0.50;0.50;;;18.90;99.90;;;;;;5050612;28;20052;-79
2023/07/10 05:15:34;;;;;;;0.50;0.50;;;18.90;99.90;;;;;;5040070;28;20045;-78
2023/07/10 05:18:00;;;;;;;0.30;0.30;;;18.90;99.90;;;;;;5052893;28;20045;-79
2023/07/10 05:20:25;;;;;;;0.88;0.88;;;19.00;99.90;;;;;;5049314;28;20041;-79
2023/07/10 05:22:51;;;;;;;0.32;0.32;;;19.20;99.90;;;;;;5047714;28;20457;-78
2023/07/10 05:25:18;;;;;;;0.45;0.45;;;18.90;99.90;;;;;;5041998;28;20451;-79
2023/07/10 05:27:43;;;;;;;0.63;0.63;;;18.90;99.90;;;;;;5047251;28;20060;-78
2023/07/10 05:30:09;;;;;;;1.27;1.10;;;19.10;99.90;;;;;;5037396;28;20064;-78
2023/07/10 05:32:35;;;;;;;0.50;0.50;;;18.90;99.90;;;;;;5034524;28;20573;-78
2023/07/10 05:35:00;;;;;;;0.40;0.40;;;19.10;99.90;;;;;;5036352;28;20091;-78
2023/07/10 05:37:26;;;;;;;1.88;0.95;;;18.80;99.90;;;;;;5034202;28;20044;-78
2023/07/10 05:39:52;;;;;;;0.80;0.80;;;19.00;99.90;;;;;;5037764;28;20665;-79
2023/07/10 05:42:18;;;;;;;0.47;0.47;;;19.20;99.90;;;;;;5035934;28;20132;-78
2023/07/10 05:44:43;;;;;;;0.40;0.40;;;19.20;99.90;;;;;;5036960;28;20128;-78
2023/07/10 05:47:09;;;;;;;0.60;0.55;;;19.00;99.90;;;;;;5036992;28;20059;-78
2023/07/10 05:49:35;;;;;;;1.45;1.35;;;19.10;99.90;;;;;;5038153;28;20042;-78
2023/07/10 05:52:00;;;;;;;0.65;0.65;;;19.10;99.90;;;;;;5030767;28;20049;-78
2023/07/10 05:54:26;;;;;;;0.40;0.40;;;19.30;99.90;;;;;;5037747;28;20044;-78
2023/07/10 05:56:52;;;;;;;0.85;0.82;;;19.40;99.90;;;;;;5037165;28;20072;-78
2023/07/10 05:59:17;;;;;;;0.60;0.60;;;19.40;99.90;;;;;;5037131;28;20040;-77
2023/07/10 06:01:43;;;;;;;0.93;0.80;;;19.30;99.90;;;;;;5037526;28;20052;-77
2023/07/10 06:04:09;;;;;;;0.65;0.65;;;19.10;99.90;;;;;;5037090;28;20524;-78
2023/07/10 06:06:34;;;;;;;0.47;0.47;;;19.40;99.90;;;;;;5034482;28;20804;-78
2023/07/10 06:09:00;;;;;;;0.40;0.40;;;19.40;99.90;;;;;;5035722;28;20132;-78
2023/07/10 06:11:26;;;;;;;0.50;0.50;;;19.20;99.90;;;;;;5037727;28;20043;-79
2023/07/10 06:13:51;;;;;;;0.47;0.47;;;19.60;99.90;;;;;;5036777;28;20572;-78
2023/07/10 06:16:17;;;;;;;0.30;0.30;;;19.30;99.90;;;;;;5036180;28;20490;-78
2023/07/10 06:18:43;;;;;;;1.17;0.63;;;19.30;99.90;;;;;;5038196;28;20053;-78
2023/07/10 06:21:10;;;;;;;0.60;0.60;;;19.50;99.90;;;;;;5033442;28;20052;-78
2023/07/10 06:23:37;;;;;;;0.40;0.40;;;19.60;99.90;;;;;;5035178;28;20144;-78
2023/07/10 06:26:03;;;;;;;0.93;0.93;;;19.60;99.90;;;;;;5032555;28;20636;-78
2023/07/10 06:28:30;;;;;;;0.60;0.60;;;19.50;99.90;;;;;;5037065;28;20052;-78
2023/07/10 06:31:08;;;;;;;0.38;0.38;;;19.70;99.90;;;;;;5033011;28;20536;-78
2023/07/10 06:33:34;;;;;;;0.50;0.50;;;19.40;99.90;;;;;;5035845;28;20071;-78
2023/07/10 06:36:01;;;;;;;0.77;0.77;;;19.90;99.90;;;;;;5034345;28;20124;-78
2023/07/10 06:38:26;;;;;;;1.25;1.25;;;19.60;99.90;;;;;;5038858;28;20041;-78
2023/07/10 06:40:52;;;;;;;0.60;0.60;;;19.60;99.90;;;;;;5035716;28;20056;-78
2023/07/10 06:43:20;;;;;;;0.40;0.40;;;19.70;99.90;;;;;;5037197;28;20414;-77
2023/07/10 06:45:46;;;;;;;0.47;0.47;;;19.80;99.90;;;;;;5045290;28;20037;-77
2023/07/10 06:48:11;;;;;;;0.40;0.40;;;19.90;99.90;;;;;;5045242;28;20068;-78
2023/07/10 06:50:37;;;;;;;0.40;0.40;;;20.00;99.90;;;;;;5043046;28;20048;-77
2023/07/10 06:53:03;;;;;;;0.55;0.55;;;20.00;99.90;;;;;;5042474;28;20131;-77
2023/07/10 06:55:29;;;;;;;0.30;0.30;;;20.10;99.90;;;;;;5026300;28;20040;-78
2023/07/10 06:57:54;;;;;;;0.40;0.40;;;20.20;99.90;;;;;;5045663;28;20049;-77
2023/07/10 07:00:20;;;;;;;0.77;0.77;;;20.00;99.90;;;;;;5051467;28;20045;-77
2023/07/10 07:02:46;;;;;;;0.40;0.40;;;19.90;99.90;;;;;;5052112;28;21456;-77
2023/07/10 07:05:12;;;;;;;0.50;0.50;;;20.00;99.90;;;;;;5046584;28;20037;-77
2023/07/10 07:07:39;;;;;;;0.50;0.50;;;20.40;99.90;;;;;;5054449;28;20094;-77
2023/07/10 07:10:08;;;;;;;0.50;0.50;;;20.20;99.90;;;;;;5043772;28;20055;-76
2023/07/10 07:12:34;;;;;;;0.65;0.65;;;20.10;99.90;;;;;;5042298;28;20033;-76
2023/07/10 07:14:59;;;;;;;1.05;0.68;;;20.10;99.90;;;;;;5049624;28;20462;-77
2023/07/10 07:17:25;;;;;;;0.40;0.40;;;20.50;99.90;;;;;;5047552;28;20167;-77
2023/07/10 07:19:51;;;;;;;0.40;0.40;;;20.40;99.90;;;;;;5055856;28;20048;-77
2023/07/10 07:22:16;;;;;;;0.40;0.40;;;20.70;99.90;;;;;;5050654;28;20076;-77
2023/07/10 07:24:42;;;;;;;0.30;0.30;;;20.50;99.90;;;;;;5055265;28;20127;-77
2023/07/10 07:27:08;;;;;;;1.15;1.02;;;20.70;99.90;;;;;;5049076;28;20045;-77
2023/07/10 07:29:34;;;;;;;0.30;0.30;;;20.80;99.90;;;;;;5055828;28;20444;-77
2023/07/10 07:32:00;;;;;;;0.30;0.30;;;21.10;99.90;;;;;;5054223;28;20104;-77
2023/07/10 07:34:26;;;;;;;0.30;0.30;;;21.30;99.90;;;;;;5048537;28;20522;-77
2023/07/10 07:36:52;;;;;;;0.40;0.40;;;21.50;99.90;;;;;;5048331;28;20107;-77
2023/07/10 07:39:22;;;;;;;0.30;0.30;;;22.00;99.90;;;;;;5044989;28;20056;-77
2023/07/10 07:41:48;;;;;;;0.40;0.40;;;22.00;99.90;;;;;;5050620;28;20040;-78
2023/07/10 07:44:20;;;;;;;0.30;0.30;;;22.10;99.90;;;;;;5056270;28;20068;-75
2023/07/10 07:46:47;;;;;;;0.40;0.40;;;22.30;99.90;;;;;;5037595;28;20498;-75
2023/07/10 07:49:12;;;;;;;1.02;1.02;;;22.60;99.90;;;;;;5040101;28;20541;-75
2023/07/10 07:51:38;;;;;;;0.22;0.22;;;22.70;99.90;;;;;;5043637;28;20049;-76
2023/07/10 07:54:09;;;;;;;0.40;0.40;;;22.70;99.90;;;;;;5039825;28;20049;-76
2023/07/10 07:56:35;;;;;;;0.40;0.40;;;23.00;99.90;;;;;;5047362;28;20040;-76
2023/07/10 07:59:00;;;;;;;0.40;0.40;;;23.20;99.90;;;;;;5048017;28;20158;-76
2023/07/10 08:01:26;;;;;;;0.30;0.30;;;23.40;99.90;;;;;;5047244;28;20044;-76
2023/07/10 08:03:52;;;;;;;0.20;0.20;;;24.00;99.90;;;;;;5044652;28;20508;-76
2023/07/10 08:06:17;;;;;;;0.60;0.60;;;23.70;99.90;;;;;;5045670;28;20036;-76
2023/07/10 08:08:44;;;;;;;0.38;0.38;;;24.00;99.90;;;;;;5044676;28;20110;-76
2023/07/10 08:11:10;;;;;;;0.40;0.40;;;24.40;99.90;;;;;;5044015;28;20049;-77
2023/07/10 08:13:36;;;;;;;0.60;0.60;;;24.70;99.90;;;;;;5047951;28;20075;-77
2023/07/10 08:16:02;;;;;;;0.70;0.70;;;24.50;99.90;;;;;;5047155;28;20151;-77
2023/07/10 08:18:28;;;;;;;0.43;0.43;;;24.60;99.90;;;;;;5030666;28;20059;-77
2023/07/10 08:21:04;;;;;;;0.28;0.28;;;24.80;99.90;;;;;;5054098;28;20045;-78
2023/07/10 08:23:30;;;;;;;0.47;0.47;;;24.80;99.90;;;;;;5040238;28;20083;-74
2023/07/10 08:25:56;;;;;;;0.52;0.52;;;25.00;99.90;;;;;;5028183;28;20048;-77
2023/07/10 08:28:22;;;;;;;0.40;0.40;;;25.10;99.90;;;;;;5042518;28;20102;-78
2023/07/10 08:30:47;;;;;;;0.60;0.60;;;25.10;99.90;;;;;;5044226;28;20039;-77
2023/07/10 08:33:13;;;;;;;0.88;0.82;;;25.20;99.90;;;;;;5056639;28;20440;-78
2023/07/10 08:35:39;;;;;;;0.40;0.40;;;25.80;99.90;;;;;;5039919;28;20069;-77
2023/07/10 08:38:05;;;;;;;0.30;0.30;;;25.60;99.90;;;;;;5050227;28;20041;-78
2023/07/10 08:40:33;;;;;;;0.43;0.43;;;25.70;99.90;;;;;;5045108;28;20106;-78
2023/07/10 08:43:22;;;;;;;0.50;0.50;;;25.60;99.90;;;;;;5043758;28;20120;-77
2023/07/10 08:45:49;;;;;;;0.60;0.60;;;25.60;99.90;;;;;;5042128;28;20060;-77
2023/07/10 08:48:41;;;;;;;0.65;0.65;;;25.60;99.90;;;;;;5055318;28;20174;-77
2023/07/10 08:51:15;;;;;;;0.40;0.40;;;25.60;99.90;;;;;;5028807;28;20049;-77
2023/07/10 08:53:45;;;;;;;1.00;0.93;;;25.70;99.90;;;;;;5047411;28;20044;-77
2023/07/10 08:56:16;;;;;;;0.30;0.30;;;25.70;99.90;;;;;;5047157;28;20087;-77
2023/07/10 08:58:42;;;;;;;0.30;0.30;;;25.70;99.90;;;;;;5048110;28;20150;-77
2023/07/10 09:01:17;;;;;;;0.50;0.50;;;25.70;99.90;;;;;;5048575;28;20498;-77
2023/07/10 09:03:51;;;;;;;0.70;0.70;;;25.80;99.90;;;;;;5051983;28;20057;-77
2023/07/10 09:06:43;;;;;;;0.40;0.40;;;25.80;99.90;;;;;;5043800;28;20401;-77
2023/07/10 09:09:38;;;;;;;0.65;0.65;;;25.80;99.90;;;;;;5032948;28;20053;-76
2023/07/10 09:12:27;;;;;;;0.43;0.43;;;25.50;99.90;;;;;;5046223;28;20099;-77
2023/07/10 09:15:01;;;;;;;0.45;0.45;;;25.60;99.90;;;;;;5044945;28;20044;-77
2023/07/10 09:17:49;;;;;;;0.63;0.63;;;25.60;99.90;;;;;;5043932;28;20037;-77
2023/07/10 09:20:15;;;;;;;0.35;0.35;;;25.80;99.90;;;;;;5041288;28;20119;-77
2023/07/10 09:22:51;;;;;;;0.30;0.30;;;25.80;99.90;;;;;;5043889;28;20468;-77
2023/07/10 09:25:17;;;;;;;0.50;0.50;;;26.00;99.90;;;;;;5044050;28;20128;-77
2023/07/10 09:27:44;;;;;;;1.50;1.30;;;25.70;99.90;;;;;;5051410;28;20120;-77
2023/07/10 09:30:34;;;;;;;0.45;0.45;;;25.60;99.90;;;;;;5049423;28;20124;-77
2023/07/10 09:33:05;;;;;;;0.40;0.40;;;25.60;99.90;;;;;;5047891;28;20155;-84
2023/07/10 09:35:33;;;;;;;1.13;1.13;;;25.60;99.90;;;;;;5053343;28;20040;-83
2023/07/10 09:38:00;;;;;;;0.50;0.50;;;25.80;99.90;;;;;;5044785;28;20438;-83
2023/07/10 09:40:44;;;;;;;0.50;0.50;;;25.80;99.90;;;;;;5025885;28;20075;-85
2023/07/10 09:43:20;;;;;;;0.65;0.65;;;25.70;99.90;;;;;;5041053;28;20080;-80
2023/07/10 09:45:48;;;;;;;0.80;0.80;;;25.70;99.90;;;;;;5041584;28;20650;-82
2023/07/10 09:48:35;;;;;;;0.60;0.60;;;26.00;99.90;;;;;;5038837;28;20535;-82
2023/07/10 09:51:08;;;;;;;0.60;0.60;;;26.00;99.90;;;;;;5044835;28;20076;-81
2023/07/10 09:53:38;;;;;;;0.30;0.30;;;26.30;99.90;;;;;;5040326;28;20041;-82
2023/07/10 09:56:04;;;;;;;0.40;0.40;;;26.30;99.90;;;;;;5039501;28;20041;-82
2023/07/10 09:58:29;;;;;;;0.60;0.60;;;26.50;99.90;;;;;;5050459;28;20448;-83
2023/07/10 10:01:04;;;;;;;0.47;0.47;;;26.30;99.90;;;;;;5050023;28;20037;-82
2023/07/10 10:03:41;;;;;;;0.40;0.40;;;26.60;99.90;;;;;;5044552;28;20048;-84
2023/07/10 10:06:20;;;;;;;0.40;0.40;;;26.60;99.90;;;;;;5049846;28;20043;-84
2023/07/10 10:08:47;;;;;;;0.57;0.57;;;26.50;99.90;;;;;;5052800;28;20469;-84
2023/07/10 10:11:13;;;;;;;0.43;0.43;;;26.70;99.90;;;;;;5047364;28;20555;-84
2023/07/10 10:13:56;;;;;;;0.70;0.70;;;26.60;99.90;;;;;;5053726;28;20052;-84
2023/07/10 10:16:34;;;;;;;1.58;0.45;;;26.90;99.90;;;;;;5053133;28;20623;-83
2023/07/10 10:19:16;;;;;;;0.50;0.50;;;27.00;99.90;;;;;;5062541;28;20036;-83
2023/07/10 10:21:42;;;;;;;0.40;0.40;;;26.80;99.90;;;;;;5049280;28;20159;-82
2023/07/10 10:24:12;;;;;;;0.50;0.50;;;26.90;99.90;;;;;;5043801;28;20041;-83
2023/07/10 10:26:41;;;;;;;0.45;0.45;;;26.90;99.90;;;;;;5044383;28;20260;-83
2023/07/10 10:29:22;;;;;;;0.63;0.50;;;26.70;99.90;;;;;;5056663;28;20045;-82
2023/07/10 10:31:56;;;;;;;0.40;0.40;;;26.80;99.90;;;;;;5032271;28;20037;-86
2023/07/10 10:34:45;;;;;;;0.60;0.60;;;26.90;99.90;;;;;;5049020;28;20095;-82
2023/07/10 10:37:24;;;;;;;0.40;0.40;;;27.40;99.90;;;;;;5044568;28;20049;-82
2023/07/10 10:39:57;;;;;;;0.73;0.73;;;27.60;99.90;;;;;;5047549;28;20103;-81
2023/07/10 10:42:37;;;;;;;0.40;0.40;;;27.60;99.90;;;;;;5050261;28;20041;-82
2023/07/10 10:45:08;;;;;;;0.93;0.93;;;27.60;99.90;;;;;;5058569;28;20505;-82
2023/07/10 10:47:48;;;;;;;0.55;0.55;;;27.80;99.90;;;;;;5050747;28;20065;-82
2023/07/10 10:50:26;;;;;;;0.65;0.65;;;28.00;99.90;;;;;;5042894;28;20112;-82
2023/07/10 10:52:58;;;;;;;0.50;0.50;;;28.00;99.90;;;;;;5040640;28;20033;-82
2023/07/10 10:55:57;;;;;;;0.70;0.70;;;28.10;99.90;;;;;;5053444;28;20072;-80
2023/07/10 10:58:49;;;;;;;0.30;0.30;;;28.00;99.90;;;;;;5035019;28;20099;-81
2023/07/10 11:01:41;;;;;;;0.57;0.57;;;28.10;99.90;;;;;;5059753;28;20498;-81
2023/07/10 11:04:21;;;;;;;0.38;0.38;;;28.10;99.90;;;;;;5042311;28;20061;-81
2023/07/10 11:07:12;;;;;;;0.40;0.40;;;28.00;99.90;;;;;;5044849;28;20063;-81
2023/07/10 11:09:47;;;;;;;0.30;0.30;;;27.90;99.90;;;;;;5038459;28;20553;-81
2023/07/10 11:12:21;;;;;;;0.32;0.32;;;27.90;99.90;;;;;;5048290;28;20517;-81
2023/07/10 11:14:48;;;;;;;0.50;0.50;;;28.10;99.90;;;;;;5044953;28;20506;-80
2023/07/10 11:17:14;;;;;;;0.30;0.30;;;28.30;99.90;;;;;;5051928;28;20396;-81
2023/07/10 11:19:41;;;;;;;0.40;0.40;;;28.30;99.90;;;;;;5048900;28;20033;-80
2023/07/10 11:22:35;;;;;;;0.60;0.60;;;28.30;99.90;;;;;;5047707;28;20532;-80
2023/07/10 11:25:02;;;;;;;0.88;0.88;;;28.30;99.90;;;;;;5047319;28;20060;-81
2023/07/10 11:27:31;;;;;;;;;;;28.10;99.90;;;;;;5046164;28;20084;-81
2023/07/10 11:30:28;;;;;;;2.80;0.80;;;28.10;99.90;;;;;;5046795;28;19960;-82
2023/07/10 11:33:04;;;;;;;0.55;0.55;;;28.30;99.90;;;;;;5052680;28;20037;-81
2023/07/10 11:35:30;;;;;;;0.40;0.40;;;28.30;99.90;;;;;;5047511;28;20466;-80
2023/07/10 11:37:59;;;;;;;0.50;0.50;;;28.40;99.90;;;;;;5047671;28;20045;-80
2023/07/10 11:40:27;;;;;;;1.08;1.05;;;28.40;99.90;;;;;;5059600;28;20501;-80
2023/07/10 11:42:53;;;;;;;0.50;0.50;;;28.40;99.90;;;;;;5047279;28;20057;-81
2023/07/10 11:45:30;;;;;;;0.43;0.43;;;28.60;99.90;;;;;;5048608;28;20388;-81
2023/07/10 11:47:56;;;;;;;1.15;1.10;;;28.40;99.90;;;;;;5042523;28;20505;-81
2023/07/10 11:50:27;;;;;;;0.43;0.43;;;28.60;99.90;;;;;;5049037;28;20066;-81
2023/07/10 11:53:05;;;;;;;0.30;0.30;;;28.60;99.90;;;;;;5051114;28;20171;-80
2023/07/10 11:55:30;;;;;;;0.32;0.32;;;28.60;99.90;;;;;;5061370;28;20044;-80
2023/07/10 11:58:23;;;;;;;0.50;0.50;;;28.50;99.90;;;;;;5051101;28;20382;-81
2023/07/10 12:00:48;;;;;;;0.40;0.40;;;28.30;99.90;;;;;;5040340;28;20083;-81
2023/07/10 12:03:14;;;;;;;0.75;0.73;;;28.40;99.90;;;;;;5055078;28;20037;-80
2023/07/10 12:05:39;;;;;;;0.50;0.50;;;28.40;99.90;;;;;;5046210;28;20071;-80
2023/07/10 12:08:08;;;;;;;0.55;0.55;;;28.60;99.90;;;;;;5026705;28;20080;-80
2023/07/10 12:10:40;;;;;;;0.47;0.35;;;28.70;99.90;;;;;;5059008;28;20071;-80
2023/07/10 12:13:18;;;;;;;0.40;0.40;;;28.80;99.90;;;;;;5042630;28;20538;-81
2023/07/10 12:15:46;;;;;;;0.68;0.68;;;28.90;99.90;;;;;;5048012;28;20485;-80
2023/07/10 12:18:18;;;;;;;0.30;0.30;;;28.90;99.90;;;;;;5023617;28;20080;-80
2023/07/10 12:20:49;;;;;;;0.40;0.40;;;29.00;99.90;;;;;;5054705;28;20066;-80
2023/07/10 12:23:15;;;;;;;0.50;0.50;;;29.30;99.90;;;;;;5039294;28;20045;-80
2023/07/10 12:25:48;;;;;;;0.40;0.40;;;29.20;99.90;;;;;;5048078;28;20098;-80
2023/07/10 12:28:16;;;;;;;0.40;0.40;;;29.30;99.90;;;;;;5059040;28;20041;-80
2023/07/10 12:30:46;;;;;;;0.30;0.30;;;29.50;99.90;;;;;;5044109;28;20114;-81
2023/07/10 12:33:37;;;;;;;0.75;0.40;;;29.40;99.90;;;;;;5061673;28;20055;-80
2023/07/10 12:36:25;;;;;;;0.30;0.30;;;29.30;99.90;;;;;;5044757;28;20102;-80
2023/07/10 12:38:53;;;;;;;0.50;0.50;;;29.20;99.90;;;;;;5046983;28;20052;-80
2023/07/10 12:41:19;;;;;;;0.40;0.40;;;29.30;99.90;;;;;;5042093;28;20112;-80
2023/07/10 12:43:52;;;;;;;0.63;0.63;;;29.50;99.90;;;;;;5053110;28;20090;-80
2023/07/10 12:46:27;;;;;;;0.40;0.40;;;29.40;99.90;;;;;;5045565;28;20307;-80
2023/07/10 12:48:59;;;;;;;0.40;0.40;;;29.50;99.90;;;;;;5051338;28;20588;-81
2023/07/10 12:51:38;;;;;;;0.50;0.50;;;29.60;99.90;;;;;;5056630;28;20417;-83
2023/07/10 12:54:19;;;;;;;0.30;0.30;;;29.80;99.90;;;;;;5048638;28;20135;-81
2023/07/10 12:56:45;;;;;;;0.57;0.57;;;29.70;99.90;;;;;;5048274;28;20036;-79
2023/07/10 12:59:21;;;;;;;0.32;0.32;;;30.00;99.90;;;;;;5046266;28;20059;-81